• Join FlightAware (Why Join?)
  • Login
  • US Flag 
05:15PM EDT


 

Airport Tracker/Info


-or-


 

Live Flight TrackerFlight Track Log ✈ VH-AFY ✈ 09-May-2013 ✈ YCAR / CVQ - YSHK / DNM

Flight Track Log - Related Links

Times and Time Zones

All times are in EDT time to prevent confusion due to time zone crossing. See the VH-AFY flight status page for this flight to view local times or setup timezone preferences in your user account.

Time Position Orientation Groundspeed Altitude Reporting Facility
EDT Latitude Longitude Course Direction KTS MPH feet Rate Location/Type
08:07PM -24.9453 113.6671 185° South  Level Aus ATC (Calculated)
08:08PM -25.0085 113.6611 185° South  Level Aus ATC (Calculated)
08:10PM -25.0694 113.6554 185° South  Level FlightAware Approximate
08:11PM -25.1009 113.6524 185° South  Level FlightAware Approximate
08:11PM -25.1350 113.6492 185° South  Level Aus ATC (Calculated)
08:13PM -25.1959 113.6434 185° South  Level FlightAware Approximate
08:14PM -25.2274 113.6405 185° South  Level FlightAware Approximate
08:15PM -25.2589 113.6375 185° South  Level FlightAware Approximate
08:15PM -25.3247 113.6313 185° South  Level Aus ATC (Calculated)
08:17PM -25.3778 113.6263 185° South  Level FlightAware Approximate
08:18PM -25.4093 113.6233 185° South  Level FlightAware Approximate
08:19PM -25.4408 113.6203 185° South  Level FlightAware Approximate
08:20PM -25.4723 113.6173 185° South  Level FlightAware Approximate
08:21PM -25.5038 113.6143 185° South  Level FlightAware Approximate
08:22PM -25.5353 113.6113 185° South  Level FlightAware Approximate
08:23PM -25.5668 113.6084 185° South  Level FlightAware Approximate
08:24PM -25.5984 113.6054 185° South  Level FlightAware Approximate
08:25PM -25.6299 113.6024 185° South  Level FlightAware Approximate
08:26PM -25.6614 113.5994 185° South  Level FlightAware Approximate
08:27PM -25.6929 113.5964 185° South  Level FlightAware Approximate
08:28PM -25.7244 113.5934 185° South  Level FlightAware Approximate
08:29PM -25.7559 113.5904 185° South  Level FlightAware Approximate
08:30PM -25.7874 113.5874 185° South  Level FlightAware Approximate
08:31PM -25.8189 113.5844 185° South  Level FlightAware Approximate
08:32PM -25.8504 113.5814 185° South  Level FlightAware Approximate
08:33PM -25.8819 113.5784 185° South  Level FlightAware Approximate
08:34PM -25.8939 113.5772 185° South  Level Estimated
08:35PM -25.8939 113.5772 34° Northeast  Level Estimated
08:36PM -25.8939 113.5772 34° Northeast  Level Estimated
08:37PM -25.8939 113.5772 34° Northeast  Level Estimated
08:38PM -25.8939 113.5772 34° Northeast  Level Estimated
08:39PM -25.8939 113.5772 34° Northeast  Level Estimated
08:40PM -25.8939 113.5772 34° Northeast  Level Estimated
08:41PM -25.8939 113.5772 185° South  Level Estimated
08:42PM -25.8939 113.5772 185° South  Level Estimated
08:43PM -25.8939 113.5772 185° South  Level Estimated
08:44PM -25.8939 113.5772 185° South  Level Estimated
08:45PM -25.8939 113.5772 185° South  Level Estimated
08:46PM -25.8939 113.5772 185° South  Level Estimated
08:47PM -25.8939 113.5772 185° South  Level Estimated
08:48PM -25.8939 113.5772 185° South  Level Estimated
08:49PM -25.8939 113.5772 185° South  Level Estimated
08:50PM -25.8939 113.5772 185° South  Level Estimated
08:51PM -25.8939 113.5772 185° South  Level Estimated
08:52PM -25.8939 113.5772 185° South  Level Estimated
08:53PM -25.8939 113.5772 185° South  Level Estimated